createdAt,value
2023-03-13T00:01:47.213Z,0.53
2023-03-13T00:04:15.376Z,0.54
2023-03-13T00:06:43.459Z,0.53
2023-03-13T00:09:13.936Z,0.52
2023-03-13T00:11:42.832Z,0.51
2023-03-13T00:14:10.996Z,0.49
2023-03-13T00:16:39.904Z,0.45
2023-03-13T00:19:08.962Z,0.41
2023-03-13T00:21:41.468Z,0.37
2023-03-13T00:24:12.480Z,0.32
2023-03-13T00:26:40.697Z,0.31
2023-03-13T00:29:08.779Z,0.30
2023-03-13T00:31:37.652Z,0.27
2023-03-13T00:34:05.857Z,0.26
2023-03-13T00:36:35.776Z,0.27
2023-03-13T00:39:06.086Z,0.29
2023-03-13T00:41:37.446Z,0.30
2023-03-13T00:44:07.193Z,0.31
2023-03-13T00:46:35.595Z,0.32
2023-03-13T00:49:04.191Z,0.30
2023-03-13T00:51:35.716Z,0.28
2023-03-13T00:54:04.960Z,0.27
2023-03-13T00:56:34.393Z,0.27
2023-03-13T00:59:03.012Z,0.28
2023-03-13T01:01:34.259Z,0.32
2023-03-13T01:04:06.055Z,0.34
2023-03-13T01:06:37.237Z,0.37
2023-03-13T01:09:07.198Z,0.40
2023-03-13T01:11:37.756Z,0.43
2023-03-13T01:14:09.565Z,0.47
2023-03-13T01:16:39.064Z,0.51
2023-03-13T01:19:13.663Z,0.54
2023-03-13T01:21:43.702Z,0.58
2023-03-13T01:24:12.000Z,0.62
2023-03-13T01:26:40.405Z,0.65
2023-03-13T01:29:08.795Z,0.69
2023-03-13T01:31:37.528Z,0.72
2023-03-13T01:34:08.664Z,0.73
2023-03-13T01:36:38.065Z,0.73
2023-03-13T01:39:06.246Z,0.74
2023-03-13T01:41:34.345Z,0.76
2023-03-13T01:44:02.553Z,0.79
2023-03-13T01:46:34.688Z,0.82
2023-03-13T01:49:25.237Z,0.85
2023-03-13T01:52:05.869Z,0.91
2023-03-13T01:54:43.024Z,0.95
2023-03-13T01:57:26.525Z,0.98
2023-03-13T02:00:08.545Z,1.00
2023-03-13T02:02:55.547Z,1.01
2023-03-13T02:05:26.671Z,1.02
2023-03-13T02:08:07.505Z,1.02
2023-03-13T02:10:45.049Z,1.03
2023-03-13T02:13:15.498Z,1.05
2023-03-13T02:15:44.936Z,1.05
2023-03-13T02:18:13.830Z,1.06
2023-03-13T02:20:42.217Z,1.08
2023-03-13T02:23:22.672Z,1.07
2023-03-13T02:25:53.664Z,1.08
2023-03-13T02:28:35.098Z,1.10
2023-03-13T02:31:06.503Z,1.11
2023-03-13T02:33:41.253Z,1.12
2023-03-13T02:36:14.297Z,1.12
2023-03-13T02:38:56.425Z,1.12
2023-03-13T02:41:25.789Z,1.10
2023-03-13T02:43:56.022Z,1.07
2023-03-13T02:46:24.756Z,1.07
2023-03-13T02:48:57.195Z,1.07
2023-03-13T02:51:44.980Z,1.06
2023-03-13T02:54:19.374Z,1.05
2023-03-13T02:56:51.205Z,1.04
2023-03-13T02:59:19.368Z,1.02
2023-03-13T03:01:47.783Z,1.01
2023-03-13T03:04:15.884Z,0.99
2023-03-13T03:06:44.108Z,0.97
2023-03-13T03:09:12.366Z,0.95
2023-03-13T03:11:41.158Z,0.96
2023-03-13T03:14:13.715Z,0.95
2023-03-13T03:16:44.880Z,0.94
2023-03-13T03:19:13.199Z,0.93
2023-03-13T03:21:41.384Z,0.91
2023-03-13T03:24:09.518Z,0.93
2023-03-13T03:26:37.870Z,0.93
2023-03-13T03:29:12.210Z,0.92
2023-03-13T03:31:41.092Z,0.91
2023-03-13T03:34:10.470Z,0.93
2023-03-13T03:36:39.037Z,0.93
2023-03-13T03:39:07.308Z,0.94
2023-03-13T03:41:37.456Z,0.92
2023-03-13T03:44:06.767Z,0.93
2023-03-13T03:46:57.781Z,0.94
2023-03-13T03:49:27.331Z,0.94
2023-03-13T03:51:55.675Z,0.95
2023-03-13T03:54:29.425Z,0.96
2023-03-13T03:56:58.004Z,0.95
2023-03-13T03:59:26.357Z,0.94
2023-03-13T04:02:05.093Z,0.93
2023-03-13T04:04:34.170Z,0.95
2023-03-13T04:07:19.130Z,0.97
2023-03-13T04:09:47.455Z,0.99
2023-03-13T04:12:23.352Z,0.99
2023-03-13T04:14:54.072Z,1.00
2023-03-13T04:17:22.477Z,1.00
2023-03-13T04:19:50.663Z,1.01
2023-03-13T04:22:19.113Z,1.02
2023-03-13T04:24:51.776Z,1.03
2023-03-13T04:27:21.349Z,1.04
2023-03-13T04:29:50.210Z,1.05
2023-03-13T04:32:41.901Z,1.05
2023-03-13T04:35:10.310Z,1.05
2023-03-13T04:38:02.646Z,1.06
2023-03-13T04:40:56.811Z,1.07
2023-03-13T04:43:51.130Z,1.10
2023-03-13T04:46:48.838Z,1.10
2023-03-13T04:49:52.230Z,1.11
2023-03-13T04:52:52.451Z,1.14
2023-03-13T04:55:41.418Z,1.15
2023-03-13T04:58:38.008Z,1.18
2023-03-13T05:01:12.764Z,1.20
2023-03-13T05:04:11.427Z,1.23
2023-03-13T05:06:59.360Z,1.25
2023-03-13T05:09:33.507Z,1.28
2023-03-13T05:12:19.303Z,1.32
2023-03-13T05:15:07.580Z,1.35
2023-03-13T05:17:57.167Z,1.38
2023-03-13T05:20:50.596Z,1.40
2023-03-13T05:23:37.531Z,1.42
2023-03-13T05:26:22.564Z,1.44
2023-03-13T05:29:09.649Z,1.46
2023-03-13T05:31:50.153Z,1.47
2023-03-13T05:34:31.212Z,1.48
2023-03-13T05:36:59.292Z,1.50
2023-03-13T05:39:39.689Z,1.51
2023-03-13T05:42:22.546Z,1.53
2023-03-13T05:45:01.279Z,1.54
2023-03-13T05:47:48.199Z,1.57
2023-03-13T05:50:39.578Z,1.60
2023-03-13T05:53:22.443Z,1.62
2023-03-13T05:56:13.615Z,1.64
2023-03-13T05:58:59.177Z,1.67
2023-03-13T06:01:37.307Z,1.69
2023-03-13T06:04:13.909Z,1.72
2023-03-13T06:06:42.534Z,1.75
2023-03-13T06:09:11.871Z,1.77
2023-03-13T06:11:41.782Z,1.79
2023-03-13T06:14:10.315Z,1.82
2023-03-13T06:16:44.432Z,1.85
2023-03-13T06:19:24.529Z,1.88
2023-03-13T06:21:53.059Z,1.91
2023-03-13T06:24:21.086Z,1.92
2023-03-13T06:26:50.422Z,1.94
2023-03-13T06:29:18.743Z,1.97
2023-03-13T06:31:46.961Z,1.98
2023-03-13T06:34:15.362Z,2.01
2023-03-13T06:36:43.677Z,2.03
2023-03-13T06:39:12.744Z,2.07
2023-03-13T06:41:40.961Z,2.08
2023-03-13T06:44:08.981Z,2.12
2023-03-13T06:46:37.123Z,2.15
2023-03-13T06:49:06.394Z,2.17
2023-03-13T06:51:34.471Z,2.19
2023-03-13T06:54:03.518Z,2.21
2023-03-13T06:56:32.367Z,2.24
2023-03-13T06:59:00.741Z,2.25
2023-03-13T07:01:28.853Z,2.27
2023-03-13T07:03:57.145Z,2.30
2023-03-13T07:06:25.355Z,2.33
2023-03-13T07:08:53.567Z,2.36
2023-03-13T07:11:21.788Z,2.39
2023-03-13T07:13:49.824Z,2.40
2023-03-13T07:16:18.318Z,2.43
2023-03-13T07:18:46.405Z,2.46
2023-03-13T07:21:14.633Z,2.49
2023-03-13T07:23:42.729Z,2.51
2023-03-13T07:26:16.679Z,2.55
2023-03-13T07:28:44.826Z,2.58
2023-03-13T07:31:20.999Z,2.61
2023-03-13T07:33:49.803Z,2.64
2023-03-13T07:36:17.979Z,2.68
2023-03-13T07:38:49.998Z,2.70
2023-03-13T07:41:18.710Z,2.73
2023-03-13T07:43:46.847Z,2.77
2023-03-13T07:46:20.248Z,2.80
2023-03-13T07:48:49.197Z,2.84
2023-03-13T07:51:25.286Z,2.87
2023-03-13T07:53:58.685Z,2.89
2023-03-13T07:56:26.898Z,2.94
2023-03-13T07:58:54.946Z,2.97
2023-03-13T08:01:27.885Z,3.01
2023-03-13T08:03:58.863Z,3.04
2023-03-13T08:06:32.618Z,3.09
2023-03-13T08:09:02.106Z,3.13
2023-03-13T08:11:30.385Z,3.18
2023-03-13T08:13:58.626Z,3.22
2023-03-13T08:16:29.620Z,3.25
2023-03-13T08:18:58.880Z,3.29
2023-03-13T08:21:29.476Z,3.31
2023-03-13T08:23:59.974Z,3.35
2023-03-13T08:26:30.452Z,3.39
2023-03-13T08:29:01.982Z,3.41
2023-03-13T08:31:33.380Z,3.44
2023-03-13T08:34:01.551Z,3.46
2023-03-13T08:36:36.025Z,3.49
2023-03-13T08:39:16.268Z,3.53
2023-03-13T08:41:44.447Z,3.57
2023-03-13T08:44:15.196Z,3.59
2023-03-13T08:46:44.278Z,3.63
2023-03-13T08:49:13.449Z,3.66
2023-03-13T08:51:42.304Z,3.68
2023-03-13T08:54:10.833Z,3.71
2023-03-13T08:56:39.022Z,3.76
2023-03-13T08:59:07.237Z,3.80
2023-03-13T09:01:36.805Z,3.84
2023-03-13T09:04:05.563Z,3.86
2023-03-13T09:06:35.996Z,3.89
2023-03-13T09:09:05.882Z,3.90
2023-03-13T09:11:36.247Z,3.92
2023-03-13T09:14:04.387Z,3.95
2023-03-13T09:16:35.026Z,3.98
2023-03-13T09:19:03.166Z,4.01
2023-03-13T09:21:33.781Z,4.04
2023-03-13T09:24:02.404Z,4.07
2023-03-13T09:26:30.818Z,4.08
2023-03-13T09:28:59.117Z,4.10
2023-03-13T09:31:32.639Z,4.12
2023-03-13T09:34:01.309Z,4.15
2023-03-13T09:36:29.649Z,4.17
2023-03-13T09:38:59.552Z,4.19
2023-03-13T09:41:45.517Z,4.21
2023-03-13T09:44:20.038Z,4.24
2023-03-13T09:46:54.057Z,4.27
2023-03-13T09:49:37.930Z,4.29
2023-03-13T09:52:15.850Z,4.33
2023-03-13T09:54:50.122Z,4.36
2023-03-13T09:57:22.289Z,4.40
2023-03-13T10:00:21.980Z,4.43
2023-03-13T10:03:11.994Z,4.47
2023-03-13T10:05:46.583Z,4.53
2023-03-13T10:08:24.812Z,4.57
2023-03-13T10:11:11.783Z,4.60
2023-03-13T10:13:55.275Z,4.64
2023-03-13T10:16:26.655Z,4.68
2023-03-13T10:18:58.284Z,4.71
2023-03-13T10:21:34.174Z,4.74
2023-03-13T10:24:36.988Z,4.78
2023-03-13T10:27:05.087Z,4.81
2023-03-13T10:29:33.694Z,4.84
2023-03-13T10:32:05.183Z,4.88
2023-03-13T10:35:06.138Z,4.90
2023-03-13T10:37:43.965Z,4.93
2023-03-13T10:40:25.277Z,4.96
2023-03-13T10:43:01.402Z,4.98
2023-03-13T10:45:36.006Z,5.00
2023-03-13T10:48:13.046Z,5.03
2023-03-13T10:50:49.519Z,5.06
2023-03-13T10:53:20.299Z,5.10
2023-03-13T10:55:48.699Z,5.12
2023-03-13T10:58:35.506Z,5.15
2023-03-13T11:01:16.800Z,5.18
2023-03-13T11:03:46.738Z,5.22
2023-03-13T11:06:37.773Z,5.26
2023-03-13T11:09:16.405Z,5.29
2023-03-13T11:12:11.942Z,5.32
2023-03-13T11:14:40.936Z,5.38
2023-03-13T11:17:12.123Z,5.41
2023-03-13T11:20:01.108Z,5.45
2023-03-13T11:22:50.500Z,5.48
2023-03-13T11:25:39.437Z,5.52
2023-03-13T11:28:50.638Z,5.56
2023-03-13T11:31:42.553Z,5.59
2023-03-13T11:34:36.340Z,5.61
2023-03-13T11:37:15.385Z,5.63
2023-03-13T11:39:52.833Z,5.64
2023-03-13T11:42:42.880Z,5.65
2023-03-13T11:45:40.755Z,5.67
2023-03-13T11:48:20.829Z,5.68
2023-03-13T11:50:55.252Z,5.69
2023-03-13T11:53:26.513Z,5.70
2023-03-13T11:56:32.797Z,5.71
2023-03-13T11:59:24.916Z,5.72
2023-03-13T12:02:02.814Z,5.72
2023-03-13T12:04:37.141Z,5.72
2023-03-13T12:07:20.809Z,5.72
2023-03-13T12:10:03.112Z,5.73
2023-03-13T12:12:44.658Z,5.74
2023-03-13T12:15:28.095Z,5.77
2023-03-13T12:18:24.302Z,5.78
2023-03-13T12:21:12.438Z,5.78
2023-03-13T12:23:48.954Z,5.79
2023-03-13T12:26:21.043Z,5.81
2023-03-13T12:29:17.285Z,5.83
2023-03-13T12:32:04.564Z,5.84
2023-03-13T12:34:41.678Z,5.85
2023-03-13T12:37:20.143Z,5.85
2023-03-13T12:39:57.981Z,5.86
2023-03-13T12:42:40.135Z,5.88
2023-03-13T12:45:14.801Z,5.89
2023-03-13T12:48:04.676Z,5.90
2023-03-13T12:50:45.331Z,5.91
2023-03-13T12:54:10.370Z,5.92
2023-03-13T12:56:44.372Z,5.93
2023-03-13T12:59:15.236Z,5.95
2023-03-13T13:01:47.589Z,5.96
2023-03-13T13:04:17.851Z,5.97
2023-03-13T13:07:03.268Z,5.98
2023-03-13T13:09:37.355Z,6.00
2023-03-13T13:12:14.778Z,6.01
2023-03-13T13:14:49.060Z,6.04
2023-03-13T13:17:39.150Z,6.08
2023-03-13T13:20:26.714Z,6.11
2023-03-13T13:22:55.219Z,6.15
2023-03-13T13:25:34.092Z,6.18
2023-03-13T13:28:35.361Z,6.22
2023-03-13T13:31:41.940Z,6.24
2023-03-13T13:34:30.910Z,6.27
2023-03-13T13:37:00.481Z,6.29
2023-03-13T13:39:40.542Z,6.31
2023-03-13T13:42:30.761Z,6.35
2023-03-13T13:45:01.807Z,6.37
2023-03-13T13:47:33.617Z,6.40
2023-03-13T13:50:02.438Z,6.43
2023-03-13T13:52:41.847Z,6.45
2023-03-13T13:55:22.246Z,6.49
2023-03-13T13:57:59.320Z,6.52
2023-03-13T14:00:35.026Z,6.55
2023-03-13T14:03:03.751Z,6.58
2023-03-13T14:05:32.706Z,6.63
2023-03-13T14:08:08.802Z,6.67
2023-03-13T14:10:40.216Z,6.70
2023-03-13T14:13:17.278Z,6.75
2023-03-13T14:15:50.199Z,6.79
2023-03-13T14:18:21.095Z,6.82
2023-03-13T14:20:59.471Z,6.85
2023-03-13T14:23:42.296Z,6.87
2023-03-13T14:26:19.933Z,6.91
2023-03-13T14:29:03.801Z,6.94
2023-03-13T14:31:39.255Z,6.97
2023-03-13T14:34:11.858Z,6.99
2023-03-13T14:37:11.171Z,7.01
2023-03-13T14:39:48.863Z,7.03
2023-03-13T14:42:18.872Z,7.06
2023-03-13T14:44:50.601Z,7.09
2023-03-13T14:47:31.343Z,7.11
2023-03-13T14:50:12.619Z,7.13
2023-03-13T14:52:50.810Z,7.15
2023-03-13T14:55:22.237Z,7.17
2023-03-13T14:58:01.484Z,7.21
2023-03-13T15:00:40.774Z,7.25
2023-03-13T15:03:20.321Z,7.27
2023-03-13T15:06:05.509Z,7.30
2023-03-13T15:08:38.802Z,7.34
2023-03-13T15:11:34.145Z,7.38
2023-03-13T15:14:02.478Z,7.40
2023-03-13T15:16:30.774Z,7.43
2023-03-13T15:18:58.926Z,7.46
2023-03-13T15:21:33.476Z,7.48
2023-03-13T15:24:15.036Z,7.50
2023-03-13T15:26:43.674Z,7.51
2023-03-13T15:29:11.818Z,7.54
2023-03-13T15:31:40.291Z,7.55
2023-03-13T15:34:13.429Z,7.57
2023-03-13T15:36:42.770Z,7.58
2023-03-13T15:39:16.323Z,7.59
2023-03-13T15:41:44.479Z,7.61
2023-03-13T15:44:12.699Z,7.63
2023-03-13T15:46:40.998Z,7.64
2023-03-13T15:49:13.063Z,7.65
2023-03-13T15:51:41.412Z,7.66
2023-03-13T15:54:09.657Z,7.67
2023-03-13T15:56:39.145Z,7.69
2023-03-13T15:59:12.607Z,7.70
2023-03-13T16:01:41.622Z,7.71
2023-03-13T16:04:11.336Z,7.72
2023-03-13T16:06:40.048Z,7.73
2023-03-13T16:09:08.835Z,7.75
2023-03-13T16:11:36.966Z,7.78
2023-03-13T16:14:05.612Z,7.81
2023-03-13T16:16:37.674Z,7.83
2023-03-13T16:19:07.770Z,7.85
2023-03-13T16:21:40.595Z,7.87
2023-03-13T16:24:09.007Z,7.89
2023-03-13T16:26:37.342Z,7.91
2023-03-13T16:29:05.888Z,7.94
2023-03-13T16:31:34.105Z,7.98
2023-03-13T16:34:03.564Z,8.01
2023-03-13T16:36:32.503Z,8.04
2023-03-13T16:39:04.316Z,8.08
2023-03-13T16:41:33.054Z,8.10
2023-03-13T16:44:02.909Z,8.13
2023-03-13T16:46:40.102Z,8.16
2023-03-13T16:49:14.000Z,8.18
2023-03-13T16:51:42.331Z,8.19
2023-03-13T16:54:12.185Z,8.19
2023-03-13T16:56:43.372Z,8.20
2023-03-13T16:59:21.627Z,8.23
2023-03-13T17:01:50.337Z,8.25
2023-03-13T17:04:18.828Z,8.28
2023-03-13T17:06:47.910Z,8.30
2023-03-13T17:09:17.786Z,8.32
2023-03-13T17:11:46.004Z,8.34
2023-03-13T17:14:14.203Z,8.36
2023-03-13T17:16:44.714Z,8.39
2023-03-13T17:19:14.496Z,8.41
2023-03-13T17:21:42.968Z,8.44
2023-03-13T17:24:11.343Z,8.46
2023-03-13T17:26:40.814Z,8.49
2023-03-13T17:29:15.973Z,8.51
2023-03-13T17:31:44.909Z,8.52
2023-03-13T17:34:13.189Z,8.55
2023-03-13T17:36:41.543Z,8.57
2023-03-13T17:39:13.109Z,8.57
2023-03-13T17:41:41.847Z,8.58
2023-03-13T17:44:10.086Z,8.60
2023-03-13T17:46:42.276Z,8.62
2023-03-13T17:49:11.699Z,8.65
2023-03-13T17:51:46.229Z,8.65
2023-03-13T17:54:16.030Z,8.66
2023-03-13T17:56:45.390Z,8.68
2023-03-13T17:59:18.710Z,8.70
2023-03-13T18:01:47.045Z,8.71
2023-03-13T18:04:15.293Z,8.73
2023-03-13T18:06:46.153Z,8.76
2023-03-13T18:09:20.800Z,8.77
2023-03-13T18:11:49.913Z,8.79
2023-03-13T18:14:18.141Z,8.81
2023-03-13T18:16:48.334Z,8.84
2023-03-13T18:19:22.421Z,8.85
2023-03-13T18:21:53.765Z,8.87
2023-03-13T18:24:23.007Z,8.89
2023-03-13T18:26:51.440Z,8.92
2023-03-13T18:29:29.297Z,8.94
2023-03-13T18:32:00.499Z,8.96
2023-03-13T18:34:29.735Z,9.00
2023-03-13T18:37:04.132Z,9.02
2023-03-13T18:39:33.107Z,9.03
2023-03-13T18:42:02.220Z,9.06
2023-03-13T18:44:30.306Z,9.08
2023-03-13T18:46:58.816Z,9.10
2023-03-13T18:49:26.940Z,9.13
2023-03-13T18:51:55.853Z,9.14
2023-03-13T18:54:24.196Z,9.17
2023-03-13T18:56:52.280Z,9.20
2023-03-13T18:59:22.547Z,9.23
2023-03-13T19:01:51.272Z,9.25
2023-03-13T19:04:20.258Z,9.28
2023-03-13T19:06:48.524Z,9.30
2023-03-13T19:12:07.622Z,9.34
2023-03-13T19:14:35.890Z,9.36
2023-03-13T19:17:07.269Z,9.40
2023-03-13T19:19:35.473Z,9.43
2023-03-13T19:22:03.695Z,9.45
2023-03-13T19:24:32.111Z,9.47
2023-03-13T19:27:00.509Z,9.51
2023-03-13T19:29:29.125Z,9.53
2023-03-13T19:31:59.319Z,9.55
2023-03-13T19:34:27.596Z,9.57
2023-03-13T19:36:55.771Z,9.59
2023-03-13T19:39:25.686Z,9.62
2023-03-13T19:41:54.244Z,9.65
2023-03-13T19:44:22.403Z,9.68
2023-03-13T19:46:56.022Z,9.70
2023-03-13T19:49:24.164Z,9.71
2023-03-13T19:51:52.363Z,9.71
2023-03-13T19:54:20.529Z,9.72
2023-03-13T19:56:49.629Z,9.73
2023-03-13T19:59:20.865Z,9.75
2023-03-13T20:01:49.384Z,9.76
2023-03-13T20:04:17.502Z,9.79
2023-03-13T20:06:45.857Z,9.80
2023-03-13T20:09:17.176Z,9.82
2023-03-13T20:11:45.405Z,9.85
2023-03-13T20:14:13.492Z,9.87
2023-03-13T21:10:31.193Z,10.65
2023-03-13T21:12:59.346Z,10.58
2023-03-13T21:15:27.437Z,10.50
2023-03-13T21:17:56.545Z,10.42
2023-03-13T21:20:25.408Z,10.35
2023-03-13T21:22:53.847Z,10.30
2023-03-13T21:25:22.693Z,10.25
2023-03-13T21:27:50.820Z,10.21
2023-03-13T21:30:21.416Z,10.18
2023-03-13T21:32:49.574Z,10.15
2023-03-13T21:35:17.865Z,10.12
2023-03-13T21:37:45.994Z,10.10
2023-03-13T21:40:14.415Z,10.08
2023-03-13T21:42:42.649Z,10.05
2023-03-13T21:45:11.225Z,10.04
2023-03-13T21:47:39.504Z,10.04
2023-03-13T21:50:10.193Z,10.03
2023-03-13T21:52:41.308Z,10.02
2023-03-13T21:55:12.872Z,10.02
2023-03-13T21:57:41.290Z,10.00
2023-03-13T22:00:10.755Z,9.99
2023-03-13T22:02:38.972Z,9.99
2023-03-13T22:05:08.202Z,9.97
2023-03-13T22:07:36.936Z,9.97
2023-03-13T22:10:05.441Z,9.96
2023-03-13T22:12:34.004Z,9.96
2023-03-13T22:15:02.052Z,9.97
2023-03-13T22:17:30.204Z,9.97
2023-03-13T22:19:58.468Z,9.97
2023-03-13T22:22:26.664Z,9.98
2023-03-13T22:24:54.669Z,9.97
2023-03-13T22:27:24.288Z,9.97
2023-03-13T22:29:52.520Z,9.95
2023-03-13T22:32:20.646Z,9.95
2023-03-13T22:34:49.329Z,9.95
2023-03-13T22:37:19.731Z,9.93
2023-03-13T22:39:50.142Z,9.91
2023-03-13T22:42:18.267Z,9.90
2023-03-13T22:44:46.380Z,9.90
2023-03-13T22:47:14.667Z,9.90
2023-03-13T22:49:42.766Z,9.89
2023-03-13T22:52:10.794Z,9.87
2023-03-13T22:54:39.084Z,9.87
2023-03-13T22:57:07.207Z,9.87
2023-03-13T22:59:35.631Z,9.86
2023-03-13T23:02:04.081Z,9.86
2023-03-13T23:04:32.356Z,9.86
2023-03-13T23:07:00.469Z,9.86
2023-03-13T23:09:28.537Z,9.87
2023-03-13T23:11:56.720Z,9.87
2023-03-13T23:14:29.093Z,9.88
2023-03-13T23:16:57.864Z,9.88
2023-03-13T23:19:26.106Z,9.89
2023-03-13T23:21:54.608Z,9.88
2023-03-13T23:24:22.700Z,9.88
2023-03-13T23:26:50.830Z,9.89
2023-03-13T23:29:18.936Z,9.89
2023-03-13T23:31:47.036Z,9.89
2023-03-13T23:34:21.641Z,9.89
2023-03-13T23:36:49.923Z,9.90
2023-03-13T23:39:18.377Z,9.90
2023-03-13T23:41:46.505Z,9.90
2023-03-13T23:44:14.643Z,9.91
2023-03-13T23:46:42.697Z,9.92
2023-03-13T23:49:12.868Z,9.93
2023-03-13T23:51:41.102Z,9.93
2023-03-13T23:54:09.177Z,9.94
2023-03-13T23:56:37.405Z,9.95
2023-03-13T23:59:05.625Z,9.96
